Terminal Aerodrome Forecast
Issued by NWS

Home | Current Version | Previous Version | Text Only | Print | Product List | Glossary On
Versions: 1 2 3 4 5 6 7 8 9 10 11 12 13 14 15 16 17 18 19 20 21 22 23 24
000
FTUS42 KCAE 291140
TAFDNL
TAF
KDNL 291140Z 2912/3012 VRB03KT P6SM FEW070 BKN150
     FM291600 08006KT P6SM SCT040
     FM291900 08006KT P6SM VCSH BKN050 BKN150
     FM300200 VRB03KT P6SM SCT050 BKN150=

USA.gov is the U.S. government's official web portal to all federal, state and local government web resources and services.